x

Port Aransas, Tx (ptat2) Weather Station

1:00am - Tue 22nd Jan 2019 All times are CST. -6 hours from GMT.

  • Wind
    25mph, 29mph gusts
  • Sea Temp 59°f
  • Air Temp 65°f
  • Sea Pressure 1014.4mb
  • Port Aransas, Tx
  • Port Aransas, Tx

More Historic Weather Station data

Upgrade to MSW Pro to gain access to the past 30 days of data for over 8000 Wavebouys and Weather Stations around the globe.

Join

Comparision Forecast

View Surf forecast
   
Tue 01/22 1:00am 25 29 mph 1014.4mb 59f 65f
12:00am 28 30 mph 1015.1mb 59f 65f
Mon 01/21 11:00pm 20 21 mph 1015.5mb 60f 64f
10:00pm 20 21 mph 1016.1mb 60f 64f
9:00pm 22 24 mph 1016.4mb 60f 64f
8:00pm 20 22 mph 1016.6mb 60f 64f
7:00pm 16 16 mph 1016.7mb 60f 63f
6:00pm 15 15 mph 1016.7mb 60f 63f
5:00pm 15 16 mph 1017.3mb 60f 63f
4:00pm 16 17 mph 1017.6mb 59f 63f
3:00pm 14 15 mph 1018.6mb 59f 63f
2:00pm 13 13 mph 1019.5mb 58f 63f
1:00pm 11 13 mph 1020.7mb 58f 63f
12:00pm 13 13 mph 1021.9mb 57f 62f
11:00am 13 14 mph 1022.4mb 57f 61f
10:00am 11 13 mph 1023.2mb 57f 61f
9:00am 17 20 mph 1022.8mb 57f 60f
8:00am 17 20 mph 1022.2mb 57f 59f
7:00am 16 18 mph 1022.1mb 56f 58f
6:00am 17 18 mph 1021.7mb 57f 58f
5:00am 16 17 mph 1022mb 57f 57f
4:00am 14 16 mph 1022.8mb 57f 56f
3:00am 14 16 mph 1023.1mb 57f 56f
2:00am 16 18 mph 1023.7mb 57f 55f
1:00am 18 20 mph 1024mb 58f 54f
12:00am 14 16 mph 1024.8mb 58f 54f
Sun 01/20 11:00pm 11 13 mph 1025.6mb 58f 53f
10:00pm 9 10 mph 1025.8mb 58f 53f
9:00pm 9 10 mph 1025.9mb 58f 52f
8:00pm 10 11 mph 1025.5mb 58f 51f
7:00pm 8 9 mph 1025.6mb 58f 51f
6:00pm 5 6 mph 1026mb 58f 51f
5:00pm 6 8 mph 1026mb 58f 51f
4:00pm 7 9 mph 1026.1mb 58f 50f
3:00pm 10 14 mph 1026mb 58f 49f
2:00pm 8 9 mph 1027.3mb 58f 48f
1:00pm 14 15 mph 1028.2mb 58f 48f
12:00pm 11 14 mph 1029.1mb 58f 45f
11:00am 16 17 mph 1029.6mb 58f 44f
10:00am 20 22 mph 1029.7mb 58f 42f
9:00am 17 20 mph 1029.8mb 57f 42f
8:00am 10 13 mph 1029.6mb 57f 42f
7:00am 16 18 mph 1029mb 58f 42f
6:00am 16 18 mph 1028.4mb 57f 42f
5:00am 18 20 mph 1028.5mb 58f 43f
4:00am 18 21 mph 1028.4mb 58f 44f
3:00am 18 24 mph 1028.4mb 58f 46f
2:00am 18 21 mph 1027.8mb 59f 47f
1:00am 17 21 mph 1027.5mb 59f 48f
12:00am 17 22 mph 1026.8mb 59f 50f
Sat 01/19 11:00pm 22 25 mph 1027mb 59f 51f
10:00pm 17 20 mph 1026.3mb 59f 53f
9:00pm 16 20 mph 1025.3mb 59f 55f
8:00pm 15 18 mph 1023.9mb 60f 58f
7:00pm 10 13 mph 1022.5mb 61f 58f
6:00pm 16 20 mph 1021.4mb 61f 60f
5:00pm 23 31 mph 1020.5mb 60f 62f
4:00pm 18 28 mph 1019.8mb 60f 62f
3:00pm 23 30 mph 1019.7mb 60f 60f
2:00pm 25 32 mph 1019.9mb 60f 59f
1:00pm 24 32 mph 1020.1mb 60f 57f
12:00pm 23 30 mph 1020.5mb 60f 56f
11:00am 26 37 mph 1020.8mb 60f 56f
10:00am 28 34 mph 1020.3mb 60f 55f
9:00am 26 32 mph 1018.7mb 60f 56f
8:00am 28 34 mph 1016.7mb 61f 59f
7:00am 14 18 mph 1014.5mb 61f 63f
6:00am 10 14 mph 1012.8mb 61f 66f
5:00am 6 9 mph 1011.7mb 61f 66f
4:00am 8 10 mph 1011.2mb 61f 67f
3:00am 15 16 mph 1008.9mb 61f 63f
2:00am 20 21 mph 1008.3mb 61f 63f
1:00am 20 21 mph 1008.9mb 61f 63f
12:00am 24 26 mph 1008.9mb 61f 64f
Fri 01/18 11:00pm 25 28 mph 1008.6mb 61f 64f
10:00pm 23 26 mph 1008.7mb 60f 64f
9:00pm 25 28 mph 1008mb 60f 64f
8:00pm 29 31 mph 1008.6mb 60f 65f
7:00pm 24 26 mph 1009.1mb 60f 65f
6:00pm 23 25 mph 1009.2mb 60f 65f
5:00pm 21 23 mph 1009.8mb 60f 64f
4:00pm 16 17 mph 1010.8mb 60f 64f
3:00pm 13 14 mph 1011.1mb 60f 63f
2:00pm 11 11 mph 1012.5mb 60f 63f
1:00pm 15 16 mph 1013.9mb 60f 63f
12:00pm 13 14 mph 1015.8mb 60f 63f
11:00am 13 13 mph 1017mb 60f 64f
10:00am 14 14 mph 1016.7mb 60f 64f
9:00am 11 13 mph 1016.7mb 59f 63f